Carnival Splendor — 3EUS — position and weather

sailwx.info

Track history (hours):
 
Tides and Currents Weather Stations Pressure Air Temp Water Temp Dewpoint Dewpoint Depression Visibility Wind Speed Wind Dir Waves Ship Positions

Carnival Splendor

Last reported at 2014-Dec-22 12:00 UTC. Time now 2014-Dec-23 00:03 UTC.
Position N 23°24' W 082°36'.

Length 289 m; draft 8.3 m.

Type: Ship. MMSI: 372808000.

Wind from 140 at 20 knots

Waves 0.5 meters (2 feet), 3 second period

Barometer 1015.0 mb
Air temperature 24.0 ° C
Visibility: greater than 5.4 NM
Dewpoint 16.0 ° C
Water temperature 27.0 ° C

Date/timePositionNaut miles runAvg speedWind from/ knotsBaromVisibWave heightAir tempDewpointWater temp
2014-Dec-22 12:00N 23°24' W 082°36'19516.6 140 / 201015.0 5.4 0.524.016.027.0
2014-Dec-22 00:14N 25°35' W 079°57'1015.3
2014-Dec-21 23:33N 25°44' W 080°02'9 8.6
2014-Dec-21 22:33N 25°47' W 080°11'1 0.5
2014-Dec-21 21:23N 25°47' W 080°10'0 0.0
2014-Dec-21 20:31N 25°47' W 080°10'0 0.0
2014-Dec-21 19:25N 25°47' W 080°10'0 0.0
2014-Dec-21 18:33N 25°47' W 080°10'0 0.0
2014-Dec-21 17:27N 25°47' W 080°10'0 0.0
2014-Dec-21 16:33N 25°47' W 080°10'0 0.0
2014-Dec-21 15:29N 25°47' W 080°10'0 0.0
2014-Dec-21 14:23N 25°47' W 080°10'0 0.0
2014-Dec-21 13:31N 25°47' W 080°10'0 0.0
2014-Dec-21 12:25N 25°47' W 080°10'2 2.1
2014-Dec-21 11:32N 25°46' W 080°09'1010.7
2014-Dec-21 10:33N 25°50' W 079°58'9 9.0
2014-Dec-21 09:33N 25°54' W 079°49'8 8.0
2014-Dec-21 08:33N 25°58' W 079°41'1313.0
2014-Dec-21 07:34N 26°05' W 079°29'1816.2
2014-Dec-21 06:26N 26°14' W 079°11'10216.9
2014-Dec-21 00:24N 25°45' W 077°22'21217.1
2014-Dec-20 12:00N 24°00' W 074°00'25710.7 070 / 111018.010.8 0.524.016.027.0
2014-Dec-19 12:00N 21°18' W 070°24'   030 / 181016.010.8 1.025.018.028.0
2014-Dec-15 01:22N 26°14' W 079°12'1417.6
2014-Dec-15 00:33N 26°07' W 079°26'1817.7
2014-Dec-14 23:33N 25°58' W 079°43'1717.5
2014-Dec-14 22:34N 25°49' W 079°59'1010.2
2014-Dec-14 21:32N 25°47' W 080°10'0 0.1
2014-Dec-14 20:26N 25°47' W 080°10'0 0.0
2014-Dec-14 19:31N 25°47' W 080°10'0 0.0
2014-Dec-14 18:31N 25°47' W 080°10'0 0.0
2014-Dec-14 17:21N 25°47' W 080°10'0 0.1
2014-Dec-14 16:33N 25°47' W 080°10'0 0.0
2014-Dec-14 15:24N 25°47' W 080°10'0 0.0
2014-Dec-14 14:29N 25°47' W 080°10'0 0.0
2014-Dec-14 13:26N 25°47' W 080°10'0 0.0
2014-Dec-14 12:33N 25°47' W 080°10'0 0.3
2014-Dec-14 11:33N 25°47' W 080°11'6 6.2
2014-Dec-14 10:33N 25°46' W 080°04'1312.5
2014-Dec-14 09:33N 25°36' W 079°56'  
Track history (hours):
 
Tides and Currents Weather Stations Pressure Air Temp Water Temp Dewpoint Dewpoint Depression Visibility Wind Speed Wind Dir Waves Ship Positions

Carnival Splendor

Last reported at 2014-Dec-22 12:00 UTC. Time now 2014-Dec-23 00:03 UTC.
Position N 23°24' W 082°36'.

Length 289 m; draft 8.3 m.

Type: Ship. MMSI: 372808000.

Wind from 140 at 20 knots

Waves 0.5 meters (2 feet), 3 second period

Barometer 1015.0 mb
Air temperature 24.0 ° C
Visibility: greater than 5.4 NM
Dewpoint 16.0 ° C
Water temperature 27.0 ° C

Date/timePositionNaut miles runAvg speedWind from/ knotsBaromVisibWave heightAir tempDewpointWater temp
2014-Dec-22 12:00N 23°24' W 082°36'19516.6 140 / 201015.0 5.4 0.524.016.027.0
2014-Dec-22 00:14N 25°35' W 079°57'1015.3
2014-Dec-21 23:33N 25°44' W 080°02'9 8.6
2014-Dec-21 22:33N 25°47' W 080°11'1 0.5
2014-Dec-21 21:23N 25°47' W 080°10'0 0.0
2014-Dec-21 20:31N 25°47' W 080°10'0 0.0
2014-Dec-21 19:25N 25°47' W 080°10'0 0.0
2014-Dec-21 18:33N 25°47' W 080°10'0 0.0
2014-Dec-21 17:27N 25°47' W 080°10'0 0.0
2014-Dec-21 16:33N 25°47' W 080°10'0 0.0
2014-Dec-21 15:29N 25°47' W 080°10'0 0.0
2014-Dec-21 14:23N 25°47' W 080°10'0 0.0
2014-Dec-21 13:31N 25°47' W 080°10'0 0.0
2014-Dec-21 12:25N 25°47' W 080°10'2 2.1
2014-Dec-21 11:32N 25°46' W 080°09'1010.7
2014-Dec-21 10:33N 25°50' W 079°58'9 9.0
2014-Dec-21 09:33N 25°54' W 079°49'8 8.0
2014-Dec-21 08:33N 25°58' W 079°41'1313.0
2014-Dec-21 07:34N 26°05' W 079°29'1816.2
2014-Dec-21 06:26N 26°14' W 079°11'10216.9
2014-Dec-21 00:24N 25°45' W 077°22'21217.1
2014-Dec-20 12:00N 24°00' W 074°00'25710.7 070 / 111018.010.8 0.524.016.027.0
2014-Dec-19 12:00N 21°18' W 070°24'   030 / 181016.010.8 1.025.018.028.0
2014-Dec-15 01:22N 26°14' W 079°12'1417.6
2014-Dec-15 00:33N 26°07' W 079°26'1817.7
2014-Dec-14 23:33N 25°58' W 079°43'1717.5
2014-Dec-14 22:34N 25°49' W 079°59'1010.2
2014-Dec-14 21:32N 25°47' W 080°10'0 0.1
2014-Dec-14 20:26N 25°47' W 080°10'0 0.0
2014-Dec-14 19:31N 25°47' W 080°10'0 0.0
2014-Dec-14 18:31N 25°47' W 080°10'0 0.0
2014-Dec-14 17:21N 25°47' W 080°10'0 0.1
2014-Dec-14 16:33N 25°47' W 080°10'0 0.0
2014-Dec-14 15:24N 25°47' W 080°10'0 0.0
2014-Dec-14 14:29N 25°47' W 080°10'0 0.0
2014-Dec-14 13:26N 25°47' W 080°10'0 0.0
2014-Dec-14 12:33N 25°47' W 080°10'0 0.3
2014-Dec-14 11:33N 25°47' W 080°11'6 6.2
2014-Dec-14 10:33N 25°46' W 080°04'1312.5
2014-Dec-14 09:33N 25°36' W 079°56'  

Dump ship's entire track history